createdAt,value
2023-01-30T00:01:44.710Z,75.53
2023-01-30T00:04:16.098Z,77.80
2023-01-30T00:06:44.633Z,77.17
2023-01-30T00:09:14.717Z,75.37
2023-01-30T00:11:42.485Z,76.73
2023-01-30T00:14:11.467Z,69.50
2023-01-30T00:16:39.104Z,71.00
2023-01-30T00:19:06.914Z,66.57
2023-01-30T00:21:34.496Z,67.07
2023-01-30T00:24:02.079Z,67.77
2023-01-30T00:26:29.734Z,68.37
2023-01-30T00:28:57.352Z,68.07
2023-01-30T00:31:26.371Z,59.80
2023-01-30T00:33:53.976Z,70.70
2023-01-30T00:36:21.550Z,64.57
2023-01-30T00:38:49.143Z,66.47
2023-01-30T00:41:18.732Z,68.23
2023-01-30T00:44:04.061Z,58.37
2023-01-30T00:46:53.108Z,59.40
2023-01-30T00:49:21.364Z,65.80
2023-01-30T00:51:49.014Z,68.63
2023-01-30T00:54:16.593Z,59.37
2023-01-30T00:56:44.181Z,62.67
2023-01-30T00:59:11.812Z,56.37
2023-01-30T01:01:40.868Z,60.70
2023-01-30T01:04:10.391Z,57.70
2023-01-30T01:06:38.299Z,60.07
2023-01-30T01:09:06.486Z,62.67
2023-01-30T01:11:34.167Z,60.93
2023-01-30T01:14:03.184Z,62.37
2023-01-30T01:16:32.788Z,60.63
2023-01-30T01:19:02.458Z,61.87
2023-01-30T01:21:30.339Z,57.93
2023-01-30T01:24:00.274Z,58.87
2023-01-30T01:26:28.389Z,58.53
2023-01-30T01:28:57.163Z,59.20
2023-01-30T01:31:25.616Z,55.57
2023-01-30T01:33:53.592Z,60.30
2023-01-30T01:36:51.760Z,56.83
2023-01-30T01:39:10.265Z,60.07
2023-01-30T01:41:36.931Z,59.43
2023-01-30T01:44:06.891Z,56.13
2023-01-30T01:46:37.309Z,56.40
2023-01-30T01:49:09.112Z,61.93
2023-01-30T01:51:41.777Z,59.97
2023-01-30T01:54:14.200Z,54.27
2023-01-30T01:56:44.706Z,64.47
2023-01-30T01:59:16.746Z,61.27
2023-01-30T02:01:44.385Z,56.87
2023-01-30T02:04:12.594Z,54.07
2023-01-30T02:06:43.881Z,60.47
2023-01-30T02:09:12.149Z,59.97
2023-01-30T02:11:45.192Z,57.63
2023-01-30T02:14:14.052Z,53.30
2023-01-30T02:16:43.469Z,58.10
2023-01-30T02:19:25.046Z,55.87
2023-01-30T02:22:15.790Z,54.17
2023-01-30T02:25:08.172Z,58.67
2023-01-30T02:27:58.475Z,55.87
2023-01-30T02:30:48.075Z,56.00
2023-01-30T02:33:22.440Z,54.77
2023-01-30T02:35:59.141Z,54.17
2023-01-30T02:38:38.234Z,61.20
2023-01-30T02:41:18.898Z,48.93
2023-01-30T02:43:57.659Z,47.03
2023-01-30T02:46:34.034Z,48.50
2023-01-30T02:49:08.778Z,46.10
2023-01-30T02:51:38.857Z,48.77
2023-01-30T02:54:07.369Z,43.43
2023-01-30T02:56:45.805Z,40.87
2023-01-30T02:59:17.037Z,44.20
2023-01-30T03:02:09.451Z,41.13
2023-01-30T03:04:55.180Z,38.27
2023-01-30T03:07:32.510Z,39.20
2023-01-30T03:10:05.564Z,35.50
2023-01-30T03:12:44.896Z,37.60
2023-01-30T03:15:17.719Z,37.50
2023-01-30T03:17:48.339Z,35.97
2023-01-30T03:20:17.490Z,38.33
2023-01-30T03:22:45.111Z,34.10
2023-01-30T03:25:20.819Z,34.20
2023-01-30T03:27:51.155Z,35.20
2023-01-30T03:30:19.579Z,32.07
2023-01-30T03:32:48.493Z,35.67
2023-01-30T03:35:17.812Z,34.53
2023-01-30T03:37:46.337Z,37.90
2023-01-30T03:40:16.020Z,31.17
2023-01-30T03:42:43.983Z,31.13
2023-01-30T03:45:12.975Z,30.73
2023-01-30T03:47:40.589Z,30.83
2023-01-30T03:50:11.305Z,30.10
2023-01-30T03:52:38.911Z,30.37
2023-01-30T03:55:07.393Z,28.80
2023-01-30T03:57:34.966Z,27.07
2023-01-30T04:00:02.585Z,27.60
2023-01-30T04:02:30.432Z,30.73
2023-01-30T04:04:58.041Z,27.90
2023-01-30T04:07:29.344Z,29.23
2023-01-30T04:09:56.929Z,22.43
2023-01-30T04:12:24.653Z,26.43
2023-01-30T04:14:52.251Z,28.10
2023-01-30T04:17:19.853Z,22.13
2023-01-30T04:19:47.423Z,28.33
2023-01-30T04:22:15.021Z,24.47
2023-01-30T04:24:43.966Z,23.77
2023-01-30T04:27:11.598Z,24.00
2023-01-30T04:29:39.169Z,21.93
2023-01-30T04:32:06.791Z,20.77
2023-01-30T04:34:34.549Z,21.70
2023-01-30T04:37:02.385Z,20.90
2023-01-30T04:39:29.987Z,14.63
2023-01-30T04:41:58.919Z,19.63
2023-01-30T04:44:26.627Z,18.73
2023-01-30T04:46:54.858Z,16.73
2023-01-30T04:49:22.712Z,17.07
2023-01-30T04:51:50.308Z,15.90
2023-01-30T04:54:17.906Z,13.17
2023-01-30T04:56:45.490Z,13.10
2023-01-30T04:59:14.495Z,12.27
2023-01-30T05:01:42.421Z,13.50
2023-01-30T05:04:10.374Z,12.83
2023-01-30T05:06:37.985Z,11.80
2023-01-30T05:09:06.370Z,9.97
2023-01-30T05:11:34.608Z,10.83
2023-01-30T05:14:02.253Z,11.83
2023-01-30T05:16:31.824Z,9.83
2023-01-30T05:18:59.413Z,9.63
2023-01-30T05:21:28.801Z,6.90
2023-01-30T05:23:57.384Z,9.13
2023-01-30T05:26:25.780Z,6.80
2023-01-30T05:28:54.511Z,13.23
2023-01-30T05:31:22.346Z,9.13
2023-01-30T05:33:52.973Z,8.73
2023-01-30T05:36:21.963Z,8.93
2023-01-30T05:38:49.847Z,11.30
2023-01-30T05:41:18.004Z,10.90
2023-01-30T05:43:45.674Z,10.87
2023-01-30T05:46:13.763Z,8.53
2023-01-30T05:48:41.440Z,12.43
2023-01-30T05:51:18.968Z,8.67
2023-01-30T05:53:46.684Z,18.10
2023-01-30T05:56:14.706Z,5.07
2023-01-30T05:58:42.878Z,11.13
2023-01-30T06:01:13.766Z,9.30
2023-01-30T06:03:41.471Z,14.43
2023-01-30T06:06:09.262Z,8.33
2023-01-30T06:08:38.364Z,10.37
2023-01-30T06:11:08.427Z,12.60
2023-01-30T06:13:36.538Z,10.10
2023-01-30T06:16:04.189Z,11.20
2023-01-30T06:18:31.792Z,13.13
2023-01-30T06:20:59.487Z,12.43
2023-01-30T06:23:27.163Z,10.83
2023-01-30T06:25:56.575Z,11.57
2023-01-30T06:28:26.061Z,9.30
2023-01-30T06:30:54.383Z,12.60
2023-01-30T06:33:22.120Z,12.20
2023-01-30T06:35:51.092Z,6.83
2023-01-30T06:38:20.607Z,11.97
2023-01-30T06:40:49.534Z,11.30
2023-01-30T06:43:18.547Z,11.33
2023-01-30T06:45:46.441Z,7.90
2023-01-30T06:48:14.091Z,13.90
2023-01-30T06:50:41.683Z,12.27
2023-01-30T06:53:09.661Z,16.40
2023-01-30T06:55:38.393Z,10.30
2023-01-30T06:58:07.865Z,12.30
2023-01-30T07:00:39.555Z,10.07
2023-01-30T07:03:11.062Z,8.67
2023-01-30T07:05:39.019Z,9.90
2023-01-30T07:08:06.831Z,12.33
2023-01-30T07:10:35.758Z,12.83
2023-01-30T07:13:04.253Z,15.37
2023-01-30T07:15:32.205Z,16.43
2023-01-30T07:18:01.730Z,15.80
2023-01-30T07:20:31.205Z,13.07
2023-01-30T07:22:59.438Z,14.43
2023-01-30T07:25:29.429Z,17.23
2023-01-30T07:27:59.129Z,15.90
2023-01-30T07:30:28.106Z,21.00
2023-01-30T07:32:58.566Z,20.67
2023-01-30T07:35:29.983Z,25.07
2023-01-30T07:37:58.084Z,31.27
2023-01-30T07:40:26.018Z,28.70
2023-01-30T07:42:58.953Z,25.93
2023-01-30T07:45:27.470Z,23.87
2023-01-30T07:47:55.276Z,22.83
2023-01-30T07:50:23.002Z,30.53
2023-01-30T07:52:53.022Z,21.90
2023-01-30T07:55:20.974Z,31.80
2023-01-30T07:57:48.799Z,29.70
2023-01-30T08:00:17.431Z,27.60
2023-01-30T08:02:45.270Z,28.70
2023-01-30T08:05:12.860Z,24.53
2023-01-30T08:07:40.673Z,30.23
2023-01-30T08:10:12.179Z,26.23
2023-01-30T08:12:40.679Z,25.53
2023-01-30T08:15:09.333Z,21.60
2023-01-30T08:17:37.183Z,25.40
2023-01-30T08:20:05.667Z,22.40
2023-01-30T08:22:33.346Z,25.83
2023-01-30T08:25:01.509Z,30.90
2023-01-30T08:27:30.513Z,21.57
2023-01-30T08:29:58.192Z,30.77
2023-01-30T08:32:25.931Z,27.33
2023-01-30T08:34:53.595Z,28.70
2023-01-30T08:37:21.332Z,29.13
2023-01-30T08:39:48.985Z,29.27
2023-01-30T08:42:16.609Z,27.20
2023-01-30T08:44:45.680Z,30.70
2023-01-30T08:47:13.378Z,27.23
2023-01-30T08:49:41.168Z,20.10
2023-01-30T08:52:08.962Z,22.90
2023-01-30T08:54:36.666Z,20.33
2023-01-30T08:57:04.506Z,30.13
2023-01-30T08:59:32.276Z,22.73
2023-01-30T09:02:01.425Z,19.93
2023-01-30T09:04:30.670Z,30.60
2023-01-30T09:06:58.429Z,28.60
2023-01-30T09:09:26.542Z,23.50
2023-01-30T09:11:54.246Z,25.97
2023-01-30T09:14:22.066Z,24.93
2023-01-30T09:16:55.572Z,28.90
2023-01-30T09:19:25.574Z,25.70
2023-01-30T09:21:54.150Z,22.63
2023-01-30T09:24:26.387Z,25.00
2023-01-30T09:26:54.615Z,28.77
2023-01-30T09:29:22.657Z,25.83
2023-01-30T09:31:50.953Z,20.43
2023-01-30T09:34:18.876Z,24.13
2023-01-30T09:36:48.378Z,26.63
2023-01-30T09:39:16.192Z,23.77
2023-01-30T09:42:05.119Z,28.37
2023-01-30T09:44:56.498Z,26.83
2023-01-30T09:47:33.060Z,25.87
2023-01-30T09:50:13.772Z,21.23
2023-01-30T09:52:54.188Z,20.53
2023-01-30T09:55:24.874Z,29.93
2023-01-30T09:57:53.608Z,27.53
2023-01-30T10:00:26.421Z,28.17
2023-01-30T10:03:02.008Z,28.40
2023-01-30T10:05:37.693Z,24.00
2023-01-30T10:08:24.282Z,18.50
2023-01-30T10:11:10.479Z,22.67
2023-01-30T10:13:54.454Z,20.60
2023-01-30T10:16:28.587Z,22.03
2023-01-30T10:19:33.573Z,25.63
2023-01-30T10:22:12.505Z,23.60
2023-01-30T10:24:54.579Z,21.77
2023-01-30T10:27:23.536Z,20.73
2023-01-30T10:29:57.059Z,24.20
2023-01-30T10:32:31.728Z,15.27
2023-01-30T10:35:05.553Z,27.93
2023-01-30T10:37:37.045Z,22.97
2023-01-30T10:40:15.841Z,21.30
2023-01-30T10:42:50.305Z,15.10
2023-01-30T10:45:22.313Z,15.73
2023-01-30T10:48:02.840Z,24.83
2023-01-30T10:50:46.289Z,22.63
2023-01-30T10:53:20.577Z,17.83
2023-01-30T10:55:54.054Z,17.27
2023-01-30T10:58:28.483Z,13.47
2023-01-30T11:01:01.362Z,21.00
2023-01-30T11:03:37.739Z,20.33
2023-01-30T11:06:08.967Z,18.80
2023-01-30T11:08:37.655Z,21.53
2023-01-30T11:11:32.380Z,16.97
2023-01-30T11:14:07.882Z,22.07
2023-01-30T11:16:44.541Z,16.00
2023-01-30T11:19:21.884Z,9.40
2023-01-30T11:21:51.999Z,15.17
2023-01-30T11:24:22.440Z,9.07
2023-01-30T11:26:52.529Z,6.03
2023-01-30T11:29:30.079Z,6.23
2023-01-30T11:32:02.496Z,7.80
2023-01-30T11:34:30.404Z,5.93
2023-01-30T11:37:14.471Z,5.50
2023-01-30T11:39:51.452Z,4.27
2023-01-30T11:42:25.386Z,6.77
2023-01-30T11:45:10.696Z,7.53
2023-01-30T11:47:57.940Z,9.37
2023-01-30T11:51:32.097Z,7.07
2023-01-30T11:53:31.137Z,8.03
2023-01-30T11:56:06.308Z,7.97
2023-01-30T11:58:39.779Z,5.70
2023-01-30T12:01:11.172Z,11.07
2023-01-30T12:03:48.388Z,11.07
2023-01-30T12:06:23.591Z,9.70
2023-01-30T12:08:54.738Z,10.63
2023-01-30T12:11:32.820Z,15.67
2023-01-30T12:14:24.268Z,13.27
2023-01-30T12:16:59.049Z,13.80
2023-01-30T12:19:41.101Z,11.27
2023-01-30T12:22:20.353Z,12.47
2023-01-30T12:24:59.041Z,13.63
2023-01-30T12:27:39.160Z,15.63
2023-01-30T12:30:22.190Z,14.23
2023-01-30T12:40:33.676Z,11.60
2023-01-30T12:43:21.860Z,19.00
2023-01-30T12:46:00.932Z,12.93
2023-01-30T12:48:48.176Z,17.80
2023-01-30T12:51:34.797Z,30.30
2023-01-30T12:54:13.601Z,20.30
2023-01-30T12:56:53.284Z,28.60
2023-01-30T12:59:27.448Z,29.37
2023-01-30T13:02:16.904Z,25.00
2023-01-30T13:05:01.659Z,28.43
2023-01-30T13:07:43.767Z,24.40
2023-01-30T13:10:20.847Z,22.20
2023-01-30T13:13:01.282Z,24.43
2023-01-30T13:15:37.491Z,23.70
2023-01-30T13:18:15.187Z,28.13
2023-01-30T13:20:53.993Z,22.53
2023-01-30T13:23:27.094Z,23.13
2023-01-30T13:26:03.033Z,19.07
2023-01-30T13:28:35.942Z,19.27
2023-01-30T13:31:07.705Z,22.07
2023-01-30T13:33:42.521Z,16.33
2023-01-30T13:36:16.478Z,18.23
2023-01-30T13:38:58.265Z,28.37
2023-01-30T13:41:28.567Z,17.40
2023-01-30T13:43:56.276Z,23.83
2023-01-30T13:46:27.512Z,19.27
2023-01-30T13:49:06.857Z,22.97
2023-01-30T13:51:46.281Z,18.53
2023-01-30T13:54:32.407Z,19.90
2023-01-30T13:57:15.159Z,22.50
2023-01-30T14:00:17.628Z,21.47
2023-01-30T14:03:17.789Z,16.57
2023-01-30T14:06:11.817Z,24.23
2023-01-30T14:08:53.445Z,17.47
2023-01-30T14:11:32.409Z,14.27
2023-01-30T14:14:05.539Z,18.07
2023-01-30T14:16:44.964Z,20.37
2023-01-30T14:19:35.816Z,19.37
2023-01-30T14:22:19.182Z,23.47
2023-01-30T14:25:06.864Z,16.87
2023-01-30T14:27:36.042Z,23.83
2023-01-30T14:30:23.959Z,16.67
2023-01-30T14:32:55.179Z,21.33
2023-01-30T14:35:28.227Z,24.80
2023-01-30T14:38:14.884Z,24.73
2023-01-30T14:40:50.591Z,20.90
2023-01-30T14:43:53.037Z,21.67
2023-01-30T14:46:42.213Z,25.97
2023-01-30T14:49:27.731Z,30.07
2023-01-30T14:51:56.256Z,27.23
2023-01-30T14:54:40.224Z,19.30
2023-01-30T14:57:20.931Z,19.97
2023-01-30T15:00:14.260Z,20.90
2023-01-30T15:02:44.757Z,20.60
2023-01-30T15:05:16.047Z,20.97
2023-01-30T15:07:46.896Z,20.13
2023-01-30T15:10:34.675Z,18.77
2023-01-30T15:13:17.400Z,23.43
2023-01-30T15:15:58.461Z,22.10
2023-01-30T15:18:39.271Z,24.60
2023-01-30T15:21:31.571Z,29.97
2023-01-30T15:24:18.147Z,27.93
2023-01-30T15:26:55.618Z,32.50
2023-01-30T15:29:40.321Z,33.33
2023-01-30T15:32:19.645Z,31.00
2023-01-30T15:34:52.134Z,27.40
2023-01-30T15:37:34.875Z,20.10
2023-01-30T15:40:24.476Z,27.67
2023-01-30T15:43:00.063Z,20.70
2023-01-30T15:45:38.265Z,24.07
2023-01-30T15:48:28.199Z,28.93
2023-01-30T15:50:59.444Z,32.40
2023-01-30T15:53:31.363Z,28.97
2023-01-30T15:56:01.350Z,29.20
2023-01-30T15:58:30.016Z,31.17
2023-01-30T16:01:03.008Z,27.90
2023-01-30T16:03:36.760Z,37.03
2023-01-30T16:06:05.139Z,22.97
2023-01-30T16:08:34.173Z,25.33
2023-01-30T16:11:01.979Z,23.97
2023-01-30T16:13:33.093Z,20.33
2023-01-30T16:16:04.891Z,20.13
2023-01-30T16:18:39.482Z,25.00
2023-01-30T16:21:09.988Z,30.67
2023-01-30T16:23:42.211Z,29.33
2023-01-30T16:26:17.302Z,21.87
2023-01-30T16:28:45.983Z,28.87
2023-01-30T16:31:13.899Z,27.83
2023-01-30T16:33:43.019Z,27.07
2023-01-30T16:36:33.977Z,26.40
2023-01-30T16:39:01.685Z,24.60
2023-01-30T16:41:31.375Z,24.40
2023-01-30T16:44:10.879Z,22.97
2023-01-30T16:46:51.451Z,25.00
2023-01-30T16:49:23.671Z,23.53
2023-01-30T16:52:02.560Z,18.77
2023-01-30T16:54:32.207Z,20.93
2023-01-30T16:57:01.912Z,30.53
2023-01-30T16:59:32.116Z,22.77
2023-01-30T17:02:00.996Z,20.10
2023-01-30T17:04:32.302Z,19.93
2023-01-30T17:07:01.402Z,20.13
2023-01-30T17:09:44.484Z,19.80
2023-01-30T17:12:38.055Z,21.37
2023-01-30T17:15:28.352Z,21.90
2023-01-30T17:17:56.156Z,18.13
2023-01-30T17:20:28.753Z,18.23
2023-01-30T17:23:03.942Z,22.53
2023-01-30T17:25:38.125Z,21.73
2023-01-30T17:28:07.524Z,16.47
2023-01-30T17:30:35.466Z,17.23
2023-01-30T17:33:03.103Z,18.27
2023-01-30T17:35:32.168Z,18.57
2023-01-30T17:38:05.301Z,16.03
2023-01-30T17:40:35.245Z,26.00
2023-01-30T17:43:02.868Z,13.13
2023-01-30T17:45:31.110Z,16.80
2023-01-30T17:47:58.692Z,19.23
2023-01-30T17:50:28.312Z,19.40
2023-01-30T17:52:57.335Z,12.63
2023-01-30T17:55:25.026Z,24.50
2023-01-30T17:57:53.035Z,21.00
2023-01-30T18:00:22.477Z,16.77
2023-01-30T18:02:50.338Z,19.20
2023-01-30T18:05:18.031Z,22.13
2023-01-30T18:07:45.635Z,26.83
2023-01-30T18:10:17.787Z,13.93
2023-01-30T18:12:46.880Z,20.60
2023-01-30T18:15:15.903Z,21.33
2023-01-30T18:17:47.141Z,18.40
2023-01-30T18:20:18.183Z,27.80
2023-01-30T18:22:46.409Z,22.97
2023-01-30T18:25:16.071Z,28.33
2023-01-30T18:27:44.812Z,17.97
2023-01-30T18:30:15.866Z,25.97
2023-01-30T18:32:52.405Z,26.60
2023-01-30T18:35:21.494Z,24.40
2023-01-30T18:37:49.808Z,21.37
2023-01-30T18:40:19.919Z,28.60
2023-01-30T18:42:47.851Z,22.03
2023-01-30T18:45:15.855Z,25.53
2023-01-30T18:47:43.537Z,29.87
2023-01-30T18:50:11.965Z,27.87
2023-01-30T18:52:39.661Z,22.27
2023-01-30T18:55:07.753Z,22.57
2023-01-30T18:57:36.719Z,23.53
2023-01-30T19:00:04.963Z,17.30
2023-01-30T19:02:32.660Z,23.17
2023-01-30T19:05:00.263Z,19.30
2023-01-30T19:07:27.842Z,21.43
2023-01-30T19:09:56.369Z,22.70
2023-01-30T19:12:42.331Z,23.50
2023-01-30T19:15:11.808Z,19.13
2023-01-30T19:17:39.393Z,21.23
2023-01-30T19:20:10.983Z,25.70
2023-01-30T19:22:38.695Z,17.93
2023-01-30T19:25:07.589Z,14.93
2023-01-30T19:27:37.423Z,12.67
2023-01-30T19:30:06.392Z,10.27
2023-01-30T19:32:35.399Z,18.03
2023-01-30T19:35:03.005Z,13.30
2023-01-30T19:37:30.755Z,13.70
2023-01-30T19:39:58.414Z,10.27
2023-01-30T19:42:26.002Z,9.73
2023-01-30T19:44:53.988Z,9.53
2023-01-30T19:47:22.004Z,11.20
2023-01-30T19:49:51.142Z,12.63
2023-01-30T19:52:18.744Z,15.27
2023-01-30T19:54:47.665Z,18.57
2023-01-30T19:57:15.246Z,19.67
2023-01-30T19:59:43.402Z,12.63
2023-01-30T20:02:11.431Z,14.53
2023-01-30T20:04:40.565Z,14.63
2023-01-30T20:07:09.518Z,12.07
2023-01-30T20:09:37.125Z,18.50
2023-01-30T20:12:04.992Z,15.97
2023-01-30T20:14:33.368Z,18.73
2023-01-30T20:17:00.966Z,11.07
2023-01-30T20:19:28.596Z,19.43
2023-01-30T20:21:56.188Z,18.20
2023-01-30T20:24:25.124Z,12.30
2023-01-30T20:26:52.752Z,20.23
2023-01-30T20:29:20.361Z,22.30
2023-01-30T20:31:48.000Z,17.10
2023-01-30T20:34:16.360Z,17.80
2023-01-30T20:36:43.952Z,15.63
2023-01-30T20:39:11.542Z,16.40
2023-01-30T20:41:40.519Z,16.93
2023-01-30T20:44:11.294Z,17.67
2023-01-30T20:46:41.437Z,13.47
2023-01-30T20:49:13.285Z,13.80
2023-01-30T20:51:41.275Z,16.73
2023-01-30T20:54:11.284Z,15.93
2023-01-30T20:56:42.884Z,15.70
2023-01-30T20:59:12.355Z,18.23
2023-01-30T21:01:40.594Z,18.43
2023-01-30T21:04:10.024Z,21.40
2023-01-30T21:06:43.575Z,11.37
2023-01-30T21:09:15.049Z,14.67
2023-01-30T21:11:44.824Z,9.80
2023-01-30T21:14:12.434Z,12.13
2023-01-30T21:16:40.521Z,15.77
2023-01-30T21:19:13.650Z,13.07
2023-01-30T21:21:44.947Z,15.13
2023-01-30T21:24:14.883Z,15.77
2023-01-30T21:26:46.335Z,12.97
2023-01-30T21:29:14.934Z,12.53
2023-01-30T21:31:43.618Z,17.60
2023-01-30T21:34:11.613Z,19.87
2023-01-30T21:36:39.343Z,16.43
2023-01-30T21:39:24.339Z,15.17
2023-01-30T21:42:10.894Z,16.73
2023-01-30T21:44:39.127Z,21.37
2023-01-30T21:47:07.933Z,13.73
2023-01-30T21:49:36.725Z,19.00
2023-01-30T21:52:05.037Z,17.70
2023-01-30T21:54:32.632Z,18.00
2023-01-30T21:57:01.586Z,15.87
2023-01-30T21:59:29.217Z,11.27
2023-01-30T22:01:56.779Z,20.80
2023-01-30T22:04:24.386Z,16.33
2023-01-30T22:06:51.955Z,16.73
2023-01-30T22:09:19.562Z,13.07
2023-01-30T22:11:47.459Z,15.33
2023-01-30T22:14:16.395Z,18.33
2023-01-30T22:16:44.163Z,19.33
2023-01-30T22:19:12.794Z,11.93
2023-01-30T22:21:41.148Z,14.93
2023-01-30T22:24:11.597Z,16.27
2023-01-30T22:26:39.831Z,13.80
2023-01-30T22:29:07.754Z,15.30
2023-01-30T22:31:40.420Z,16.33
2023-01-30T22:34:08.904Z,13.07
2023-01-30T22:36:37.528Z,11.53
2023-01-30T22:39:06.183Z,9.37
2023-01-30T22:41:36.238Z,9.30
2023-01-30T22:44:05.642Z,11.33
2023-01-30T22:46:37.549Z,11.03
2023-01-30T22:49:07.157Z,10.90
2023-01-30T22:51:37.306Z,14.10
2023-01-30T22:54:06.934Z,12.13
2023-01-30T22:56:37.121Z,12.20
2023-01-30T22:59:05.394Z,10.43
2023-01-30T23:01:34.716Z,13.53
2023-01-30T23:04:05.972Z,15.00
2023-01-30T23:06:34.228Z,10.13
2023-01-30T23:09:02.364Z,13.07
2023-01-30T23:11:31.254Z,11.43
2023-01-30T23:14:04.970Z,15.77
2023-01-30T23:16:34.605Z,9.47
2023-01-30T23:19:04.603Z,12.87
2023-01-30T23:21:35.943Z,14.03
2023-01-30T23:24:07.076Z,8.90
2023-01-30T23:26:36.771Z,14.33
2023-01-30T23:29:07.564Z,9.57
2023-01-30T23:31:36.767Z,11.67
2023-01-30T23:34:07.897Z,8.37
2023-01-30T23:36:36.558Z,9.57
2023-01-30T23:39:05.317Z,9.70
2023-01-30T23:41:35.373Z,10.87
2023-01-30T23:44:03.647Z,13.87
2023-01-30T23:46:33.615Z,12.03
2023-01-30T23:49:05.994Z,14.03
2023-01-30T23:51:35.494Z,11.77
2023-01-30T23:54:03.445Z,15.67
2023-01-30T23:56:32.808Z,17.43
2023-01-30T23:59:00.500Z,18.53
